Oil Trough, Arkansas
Current Conditions -  °F | °C
As of 8:55 PM on Sunday 23 Nov 2014 (Local Time) from KBVX Reporting Station
Overcast Overcast  
Wind Chill: 63°   Ceiling: 1700
Heat Index: 63°   Visibility: 10mi
Dew Point: 57°   Wind: 14mph
Humidity: 82%   Direction: 220°SW
Pressure: 29.35"   Gusts: 20mph
Location:  35.63°N, 91.46°W
Report Text: KBVX 240255Z AUTO 22012G17KT 10SM SCT009 BKN017 OVC055 17/14 A2935 RMK AO1 54000
Loading
Personal Weather Stations






























Interactive Weather Map New forecast layout! Learn more

10-Day Weather Forecast

Advertisements
Track Severe Weather on mobile